Time;durP1;ratioP1;P1;durP2;ratioP2;P2;SDS_P1;SDS_P2;PMS_P1;PMS_P2;Temp;Humidity;BMP_temperature;BMP_pressure;BME280_temperature;BME280_humidity;BME280_pressure;Samples;Min_cycle;Max_cycle;Signal;HPM_P1;HPM_P2
2022/03/04 00:00:28;;;;;;;38.33;17.20;;;;;;;-0.09;52.67;96243.66;4932863;29;20044;-81
2022/03/04 00:02:55;;;;;;;35.05;16.98;;;;;;;-0.19;52.94;96240.88;4932982;29;20503;-82
2022/03/04 00:05:21;;;;;;;36.63;17.20;;;;;;;-0.28;52.98;96254.72;4933758;29;21323;-82
2022/03/04 00:07:48;;;;;;;35.45;17.45;;;;;;;-0.45;54.05;96247.84;4936705;29;20043;-82
2022/03/04 00:10:16;;;;;;;35.35;17.85;;;;;;;-0.52;54.62;96237.34;4935079;29;20047;-81
2022/03/04 00:12:42;;;;;;;36.80;18.13;;;;;;;-0.53;54.59;96243.72;4936266;29;20048;-82
2022/03/04 00:15:10;;;;;;;35.08;17.65;;;;;;;-0.53;54.58;96257.09;4934417;29;20418;-83
2022/03/04 00:17:36;;;;;;;35.20;17.02;;;;;;;-0.52;54.42;96250.72;4919175;29;20090;-81
2022/03/04 00:20:03;;;;;;;31.30;16.25;;;;;;;-0.46;54.25;96247.03;4915550;29;20052;-82
2022/03/04 00:22:29;;;;;;;34.70;16.92;;;;;;;-0.43;54.01;96249.19;4916833;29;20048;-82
2022/03/04 00:24:56;;;;;;;35.80;16.63;;;;;;;-0.40;53.96;96240.66;4916567;29;20055;-81
2022/03/04 00:27:24;;;;;;;35.13;16.67;;;;;;;-0.37;53.86;96250.84;4917048;29;20040;-81
2022/03/04 00:29:50;;;;;;;32.92;15.80;;;;;;;-0.34;54.12;96249.56;4917202;29;20040;-81
2022/03/04 00:32:17;;;;;;;33.63;16.58;;;;;;;-0.31;54.11;96255.22;4915789;29;20051;-81
2022/03/04 00:34:43;;;;;;;30.48;15.80;;;;;;;-0.30;54.25;96256.84;4917233;29;20044;-81
2022/03/04 00:37:10;;;;;;;29.33;16.00;;;;;;;-0.29;54.62;96258.44;4915722;29;20048;-81
2022/03/04 00:39:36;;;;;;;33.13;16.75;;;;;;;-0.28;54.25;96260.06;4917285;29;20044;-80
2022/03/04 00:42:03;;;;;;;31.05;15.98;;;;;;;-0.26;54.11;96265.19;4915647;29;20044;-81
2022/03/04 00:44:32;;;;;;;31.25;16.70;;;;;;;-0.27;54.17;96261.66;4917001;29;20052;-81
2022/03/04 00:46:58;;;;;;;30.17;16.38;;;;;;;-0.29;55.07;96255.78;4916892;29;20524;-80
2022/03/04 00:49:25;;;;;;;32.40;16.33;;;;;;;-0.29;55.26;96260.31;4916669;29;20411;-80
2022/03/04 00:51:51;;;;;;;35.17;16.20;;;;;;;-0.30;55.91;96258.72;4916693;29;20055;-80
2022/03/04 00:54:18;;;;;;;32.53;16.13;;;;;;;-0.32;55.91;96258.94;4915883;29;20072;-81
2022/03/04 00:56:44;;;;;;;29.48;15.02;;;;;;;-0.32;55.58;96264.28;4916856;29;20040;-80
2022/03/04 00:59:11;;;;;;;32.75;16.50;;;;;;;-0.30;54.99;96262.19;4915781;29;20053;-81
2022/03/04 01:01:39;;;;;;;34.05;15.63;;;;;;;-0.28;54.68;96261.94;4917052;29;20048;-80
2022/03/04 01:04:05;;;;;;;32.65;15.60;;;;;;;-0.27;54.57;96266.22;4915544;29;20055;-81
2022/03/04 01:06:32;;;;;;;32.92;15.80;;;;;;;-0.28;54.11;96269.97;4916958;29;20074;-81
2022/03/04 01:08:58;;;;;;;32.35;16.02;;;;;;;-0.31;54.24;96260.56;4916454;29;20052;-81
2022/03/04 01:11:25;;;;;;;31.13;14.77;;;;;;;-0.33;54.45;96257.31;4916279;29;20051;-80
2022/03/04 01:13:52;;;;;;;32.45;15.98;;;;;;;-0.36;54.52;96252.50;4916327;29;20459;-81
2022/03/04 01:16:18;;;;;;;32.33;15.20;;;;;;;-0.37;55.33;96250.06;4916157;29;20059;-80
2022/03/04 01:18:46;;;;;;;30.42;14.93;;;;;;;-0.38;54.97;96249.25;4916036;29;20044;-80
2022/03/04 01:21:12;;;;;;;32.45;14.75;;;;;;;-0.40;54.76;96240.66;4915598;29;20056;-81
2022/03/04 01:23:39;;;;;;;32.80;14.60;;;;;;;-0.40;54.05;96238.00;4916431;29;20047;-81
2022/03/04 01:26:05;;;;;;;29.35;14.73;;;;;;;-0.40;53.46;96235.31;4915347;29;20083;-81
2022/03/04 01:28:32;;;;;;;29.80;15.55;;;;;;;-0.40;53.46;96229.97;4916993;29;20056;-81
2022/03/04 01:30:58;;;;;;;32.03;15.65;;;;;;;-0.42;53.47;96231.28;4915775;29;20052;-81
2022/03/04 01:33:25;;;;;;;31.23;15.27;;;;;;;-0.44;53.51;96236.88;4915881;29;20048;-81
2022/03/04 01:35:53;;;;;;;30.15;15.40;;;;;;;-0.47;53.70;96234.72;4915517;29;20048;-82
2022/03/04 01:38:19;;;;;;;35.08;15.80;;;;;;;-0.49;53.95;96236.81;4915408;29;20292;-82
2022/03/04 01:40:46;;;;;;;32.72;16.20;;;;;;;-0.53;53.82;96228.47;4915607;29;20051;-81
2022/03/04 01:43:13;;;;;;;30.08;14.38;;;;;;;-0.56;53.66;96226.31;4914845;29;20051;-81
2022/03/04 01:45:39;;;;;;;28.08;14.18;;;;;;;-0.57;53.58;96221.22;4916494;29;20448;-81
2022/03/04 01:48:06;;;;;;;29.88;14.27;;;;;;;-0.59;53.73;96220.66;4914556;29;20067;-81
2022/03/04 01:50:33;;;;;;;29.80;14.25;;;;;;;-0.62;53.83;96216.63;4915995;29;20044;-81
2022/03/04 01:53:01;;;;;;;26.63;13.93;;;;;;;-0.63;53.71;96224.88;4914851;29;20055;-81
2022/03/04 01:55:27;;;;;;;29.42;14.82;;;;;;;-0.67;53.83;96219.25;4915774;29;20100;-81
2022/03/04 01:57:54;;;;;;;32.55;15.77;;;;;;;-0.70;53.89;96216.25;4914759;29;20048;-81
2022/03/04 02:00:20;;;;;;;29.83;14.20;;;;;;;-0.73;54.02;96222.91;4914965;29;20067;-82
2022/03/04 02:02:47;;;;;;;33.90;15.27;;;;;;;-0.78;54.48;96220.19;4915075;29;20055;-80
2022/03/04 02:05:15;;;;;;;31.58;15.75;;;;;;;-0.83;54.71;96215.59;4914914;29;20055;-81
2022/03/04 02:07:41;;;;;;;31.67;15.77;;;;;;;-0.87;55.21;96224.34;4915325;29;20068;-81
2022/03/04 02:10:11;;;;;;;30.40;15.93;;;;;;;-0.95;56.03;96222.91;4914106;29;20051;-82
2022/03/04 02:12:37;;;;;;;30.95;15.63;;;;;;;-1.00;56.60;96214.81;4915749;29;20048;-81
2022/03/04 02:15:05;;;;;;;33.00;16.00;;;;;;;-1.03;56.57;96220.66;4914565;29;20056;-80
2022/03/04 02:17:32;;;;;;;34.83;15.23;;;;;;;-1.05;56.48;96212.88;4933012;29;20445;-80
2022/03/04 02:19:59;;;;;;;32.90;15.60;;;;;;;-1.04;56.29;96208.38;4933353;29;20522;-81
2022/03/04 02:22:27;;;;;;;34.03;16.27;;;;;;;-1.04;56.33;96203.03;4934133;29;20071;-80
2022/03/04 02:24:53;;;;;;;32.38;16.05;;;;;;;-1.01;56.14;96207.84;4934151;29;20514;-81
2022/03/04 02:27:20;;;;;;;31.30;16.40;;;;;;;-1.01;55.80;96205.19;4933805;29;20090;-81
2022/03/04 02:29:46;;;;;;;32.28;15.15;;;;;;;-0.99;56.04;96208.44;4932614;29;20047;-80
2022/03/04 02:32:13;;;;;;;32.58;14.40;;;;;;;-1.00;56.10;96198.78;4933598;29;20055;-80
2022/03/04 02:34:39;;;;;;;32.85;15.93;;;;;;;-1.00;55.73;96209.47;4934504;29;20040;-81
2022/03/04 02:37:06;;;;;;;34.78;15.20;;;;;;;-1.01;56.01;96202.50;4933152;29;20059;-81
2022/03/04 02:39:34;;;;;;;33.47;15.60;;;;;;;-1.01;55.80;96197.16;4934652;29;20040;-81
2022/03/04 02:42:00;;;;;;;31.38;15.32;;;;;;;-1.02;55.56;96205.44;4933845;29;20059;-81
2022/03/04 02:44:27;;;;;;;32.20;15.15;;;;;;;-1.05;55.84;96207.53;4934311;29;20059;-80
2022/03/04 02:46:53;;;;;;;33.38;15.07;;;;;;;-1.07;55.63;96198.16;4933623;29;20502;-82
2022/03/04 02:49:20;;;;;;;31.60;15.48;;;;;;;-1.08;55.75;96201.91;4933995;29;20079;-81
2022/03/04 02:51:46;;;;;;;33.70;16.30;;;;;;;-1.12;55.96;96203.44;4934075;29;20051;-81
2022/03/04 02:54:13;;;;;;;31.55;15.75;;;;;;;-1.15;56.10;96211.94;4933043;29;20052;-81
2022/03/04 02:56:41;;;;;;;35.03;16.55;;;;;;;-1.18;56.56;96207.09;4933802;29;20051;-81
2022/03/04 02:59:07;;;;;;;35.20;16.63;;;;;;;-1.24;56.68;96208.91;4932593;29;20044;-81
2022/03/04 03:01:34;;;;;;;32.83;15.90;;;;;;;-1.30;57.07;96204.56;4934138;29;20048;-81
2022/03/04 03:04:00;;;;;;;31.95;14.93;;;;;;;-1.36;57.24;96200.16;4933667;29;20447;-82
2022/03/04 03:06:27;;;;;;;33.55;15.95;;;;;;;-1.43;57.79;96204.88;4933655;29;20051;-80
2022/03/04 03:08:53;;;;;;;37.50;18.75;;;;;;;-1.46;58.07;96200.03;4933101;29;20051;-81
2022/03/04 03:11:20;;;;;;;36.28;16.73;;;;;;;-1.50;58.50;96199.72;4933672;29;20522;-80
2022/03/04 03:13:48;;;;;;;30.25;15.82;;;;;;;-1.52;58.85;96209.81;4933438;29;20530;-81
2022/03/04 03:16:14;;;;;;;34.30;16.35;;;;;;;-1.58;58.96;96203.59;4926439;29;20052;-80
2022/03/04 03:18:40;;;;;;;34.25;16.02;;;;;;;-1.62;59.24;96201.66;4914190;29;20055;-81
2022/03/04 03:21:07;;;;;;;37.53;16.52;;;;;;;-1.65;59.68;96196.84;4913181;29;20104;-81
2022/03/04 03:23:34;;;;;;;33.28;16.75;;;;;;;-1.67;60.17;96198.91;4914212;29;20084;-80
2022/03/04 03:26:00;;;;;;;36.33;16.98;;;;;;;-1.67;59.96;96204.25;4913749;29;20139;-80
2022/03/04 03:28:27;;;;;;;34.92;15.68;;;;;;;-1.67;59.46;96204.25;4915081;29;20044;-81
2022/03/04 03:30:55;;;;;;;32.08;15.20;;;;;;;-1.66;59.48;96205.91;4913863;29;20064;-81
2022/03/04 03:33:21;;;;;;;36.58;16.98;;;;;;;-1.67;59.14;96209.59;4914161;29;20055;-81
2022/03/04 03:35:48;;;;;;;38.22;16.25;;;;;;;-1.68;59.07;96199.97;4913866;29;20048;-81
2022/03/04 03:38:15;;;;;;;35.83;16.52;;;;;;;-1.69;59.16;96207.19;4914148;29;20052;-81
2022/03/04 03:40:41;;;;;;;36.92;17.05;;;;;;;-1.71;59.88;96209.28;4914336;29;20044;-80
2022/03/04 03:43:08;;;;;;;33.30;16.60;;;;;;;-1.70;59.57;96212.78;4913484;29;20503;-81
2022/03/04 03:45:35;;;;;;;33.70;16.20;;;;;;;-1.72;59.77;96212.19;4929194;29;20048;-81
2022/03/04 03:48:02;;;;;;;31.98;15.82;;;;;;;-1.71;59.77;96217.31;4932591;29;20051;-81
2022/03/04 03:50:30;;;;;;;35.30;16.17;;;;;;;-1.71;59.72;96216.50;4933760;29;20051;-80
2022/03/04 03:52:57;;;;;;;36.80;16.83;;;;;;;-1.71;59.49;96224.50;4932836;29;20051;-81
2022/03/04 03:55:24;;;;;;;35.05;16.55;;;;;;;-1.74;59.19;96227.66;4933031;29;20060;-81
2022/03/04 03:57:50;;;;;;;36.03;16.05;;;;;;;-1.80;59.25;96229.44;4932902;29;20060;-81
2022/03/04 04:00:17;;;;;;;32.08;15.77;;;;;;;-1.89;59.39;96234.34;4932929;29;20044;-81
2022/03/04 04:02:43;;;;;;;37.83;16.38;;;;;;;-1.96;59.57;96239.03;4932616;29;20055;-82
2022/03/04 04:05:12;;;;;;;32.78;15.98;;;;;;;-2.01;59.80;96243.50;4932686;29;20539;-80
2022/03/04 04:07:39;;;;;;;34.90;16.90;;;;;;;-2.04;60.03;96234.09;4932667;29;20091;-80
2022/03/04 04:10:06;;;;;;;37.83;17.67;;;;;;;-2.09;60.41;96236.69;4932215;29;20052;-81
2022/03/04 04:12:33;;;;;;;37.78;16.85;;;;;;;-2.11;60.91;96233.44;4933034;29;20048;-80
2022/03/04 04:14:59;;;;;;;39.22;17.40;;;;;;;-2.14;61.77;96233.91;4932332;29;20055;-81
2022/03/04 04:17:26;;;;;;;36.92;17.35;;;;;;;-2.14;62.03;96239.25;4932951;29;20048;-81
2022/03/04 04:19:53;;;;;;;31.58;16.05;;;;;;;-2.13;61.67;96238.22;4932584;29;20055;-81
2022/03/04 04:22:21;;;;;;;32.15;16.42;;;;;;;-2.12;61.27;96245.97;4932894;29;20102;-81
2022/03/04 04:24:47;;;;;;;35.65;16.50;;;;;;;-2.11;60.90;96244.13;4932721;29;20047;-81
2022/03/04 04:27:14;;;;;;;31.55;15.30;;;;;;;-2.11;60.91;96246.78;4932126;29;20040;-81
2022/03/04 04:29:40;;;;;;;33.90;16.25;;;;;;;-2.12;60.72;96245.19;4932789;29;20050;-82
2022/03/04 04:32:07;;;;;;;32.00;16.55;;;;;;;-2.12;60.61;96247.84;4932255;29;20071;-81
2022/03/04 04:34:34;;;;;;;35.47;17.77;;;;;;;-2.13;60.49;96244.38;4933568;29;20102;-81
2022/03/04 04:37:01;;;;;;;39.42;17.30;;;;;;;-2.11;60.60;96252.13;4932075;29;20099;-80
2022/03/04 04:39:29;;;;;;;34.13;17.63;;;;;;;-2.10;60.64;96248.41;4932580;29;20054;-80
2022/03/04 04:41:55;;;;;;;38.13;16.80;;;;;;;-2.12;60.50;96250.50;4933355;29;20051;-81
2022/03/04 04:44:22;;;;;;;36.70;17.45;;;;;;;-2.24;60.76;96247.09;4932731;29;20059;-81
2022/03/04 04:46:49;;;;;;;40.38;18.05;;;;;;;-2.40;61.31;96254.81;4932158;29;20050;-81
2022/03/04 04:49:15;;;;;;;35.28;17.65;;;;;;;-2.43;61.51;96254.47;4932180;29;20062;-82
2022/03/04 04:51:42;;;;;;;33.92;16.75;;;;;;;-2.42;61.72;96261.44;4932599;29;20051;-81
2022/03/04 04:54:09;;;;;;;33.42;16.80;;;;;;;-2.41;61.69;96253.19;4935408;29;20129;-80
2022/03/04 04:56:36;;;;;;;40.95;17.42;;;;;;;-2.41;61.50;96247.84;4936056;29;20415;-81
2022/03/04 04:59:03;;;;;;;38.85;18.83;;;;;;;-2.39;61.21;96251.09;4935801;29;20055;-84
2022/03/04 05:01:29;;;;;;;42.28;20.10;;;;;;;-2.37;61.13;96253.53;4936541;29;20691;-81
2022/03/04 05:03:56;;;;;;;39.65;19.45;;;;;;;-2.36;61.00;96261.28;4936714;29;20051;-81
2022/03/04 05:06:22;;;;;;;39.20;18.38;;;;;;;-2.32;60.95;96255.47;4936543;29;20142;-81
2022/03/04 05:08:49;;;;;;;42.90;20.10;;;;;;;-2.31;60.96;96262.44;4936630;29;20044;-82
2022/03/04 05:11:15;;;;;;;46.65;19.65;;;;;;;-2.29;60.92;96261.16;4936426;29;20048;-81
2022/03/04 05:13:43;;;;;;;38.80;19.00;;;;;;;-2.31;60.98;96265.09;4935558;29;20051;-80
2022/03/04 05:16:10;;;;;;;42.65;20.02;;;;;;;-2.37;60.95;96265.00;4916942;29;20071;-80
2022/03/04 05:18:36;;;;;;;48.00;21.38;;;;;;;-2.42;61.13;96277.44;4917700;29;20052;-81
2022/03/04 05:21:03;;;;;;;43.03;20.17;;;;;;;-2.41;61.09;96274.50;4916828;29;20066;-82
2022/03/04 05:26:13;;;;;;;42.92;19.30;;;;;;;-2.40;61.46;96278.03;4916155;29;20059;-80
2022/03/04 05:28:40;;;;;;;42.70;18.95;;;;;;;-2.38;61.46;96292.72;4917218;29;20044;-82
2022/03/04 05:31:08;;;;;;;39.78;18.27;;;;;;;-2.43;61.44;96286.47;4916057;29;20443;-80
2022/03/04 05:33:34;;;;;;;40.75;19.23;;;;;;;-2.54;61.59;96288.13;4919318;29;20048;-79
2022/03/04 05:36:01;;;;;;;40.80;18.63;;;;;;;-2.69;61.89;96288.63;4930901;29;20052;-80
2022/03/04 05:38:28;;;;;;;45.63;19.38;;;;;;;-2.79;62.43;96282.28;4931454;29;20130;-83
2022/03/04 05:40:55;;;;;;;40.45;19.65;;;;;;;-2.79;62.74;96301.75;4932462;29;20093;-80
2022/03/04 05:43:21;;;;;;;42.30;19.35;;;;;;;-2.77;62.67;96293.50;4931951;29;20969;-81
2022/03/04 05:45:48;;;;;;;41.67;19.58;;;;;;;-2.75;62.72;96296.78;4931548;29;20052;-81
2022/03/04 05:48:15;;;;;;;40.80;17.65;;;;;;;-2.74;62.68;96291.19;4930197;29;20047;-81
2022/03/04 05:50:42;;;;;;;46.55;19.00;;;;;;;-2.70;62.82;96304.88;4931953;29;20043;-81
2022/03/04 05:53:09;;;;;;;36.78;17.48;;;;;;;-2.66;62.87;96303.38;4930018;29;20062;-80
2022/03/04 05:55:35;;;;;;;33.95;17.60;;;;;;;-2.63;62.92;96303.69;4931245;29;20055;-80
2022/03/04 05:58:02;;;;;;;38.88;17.40;;;;;;;-2.58;62.78;96308.31;4930946;29;20051;-80
2022/03/04 06:00:29;;;;;;;38.90;18.70;;;;;;;-2.53;63.08;96313.75;4931814;29;20075;-81
2022/03/04 06:02:55;;;;;;;37.72;17.17;;;;;;;-2.49;62.85;96314.91;4930433;29;20752;-80
2022/03/04 06:05:24;;;;;;;37.05;17.20;;;;;;;-2.43;62.61;96319.28;4929902;29;20062;-78
2022/03/04 06:07:51;;;;;;;38.30;17.88;;;;;;;-2.39;62.39;96320.44;4934818;29;20047;-82
2022/03/04 06:10:17;;;;;;;37.08;16.38;;;;;;;-2.33;62.13;96328.53;4940207;29;20047;-83
2022/03/04 06:12:49;;;;;;;38.13;16.80;;;;;;;-2.30;61.59;96326.19;4936701;29;20052;-81
2022/03/04 06:15:16;;;;;;;42.42;17.33;;;;;;;-2.29;61.64;96330.50;4917876;29;20075;-80
2022/03/04 06:17:47;;;;;;;48.10;20.13;;;;;;;-2.28;61.59;96337.44;4937085;29;20054;-81
2022/03/04 06:20:13;;;;;;;67.47;28.45;;;;;;;-2.24;61.75;96337.78;4949250;29;20083;-81
2022/03/04 06:22:41;;;;;;;57.15;25.63;;;;;;;-2.20;61.88;96344.25;4951240;29;20050;-80
2022/03/04 06:25:11;;;;;;;40.45;19.27;;;;;;;-2.17;61.55;96344.59;4953346;29;20051;-83
2022/03/04 06:27:38;;;;;;;37.42;17.23;;;;;;;-2.14;60.95;96340.63;4957010;29;20050;-81
2022/03/04 06:30:06;;;;;;;42.72;18.30;;;;;;;-2.12;60.74;96346.56;4942269;29;20048;-80
2022/03/04 06:32:32;;;;;;;37.30;18.27;;;;;;;-2.07;60.65;96345.84;4932151;29;20466;-81
2022/03/04 06:34:59;;;;;;;40.33;18.27;;;;;;;-2.01;60.60;96345.69;4934267;29;20063;-82
2022/03/04 06:37:25;;;;;;;41.90;17.88;;;;;;;-1.93;60.64;96356.00;4931554;29;20051;-81
2022/03/04 06:39:53;;;;;;;39.85;18.63;;;;;;;-1.85;60.55;96360.13;4935068;29;20055;-81
2022/03/04 06:42:19;;;;;;;37.00;17.15;;;;;;;-1.76;60.32;96361.38;4933467;29;20055;-81
2022/03/04 06:44:46;;;;;;;40.92;20.33;;;;;;;-1.67;60.54;96356.44;4926527;29;20127;-81
2022/03/04 06:47:12;;;;;;;39.42;18.95;;;;;;;-1.59;60.21;96362.19;4916246;29;20059;-80
2022/03/04 06:49:39;;;;;;;38.72;19.15;;;;;;;-1.48;59.84;96359.72;4916567;29;20048;-81
2022/03/04 06:52:06;;;;;;;50.00;22.10;;;;;;;-1.41;59.92;96368.38;4915732;29;20062;-81
2022/03/04 06:54:33;;;;;;;48.92;21.65;;;;;;;-1.42;58.91;96364.88;4914357;29;20059;-82
2022/03/04 06:57:01;;;;;;;42.85;19.42;;;;;;;-1.43;58.82;96376.63;4916349;29;20100;-82
2022/03/04 06:59:27;;;;;;;40.65;18.35;;;;;;;-1.44;60.50;96375.00;4915162;29;20055;-82
2022/03/04 07:01:54;;;;;;;40.55;19.13;;;;;;;-1.45;61.27;96376.06;4912642;29;20063;-81
2022/03/04 07:04:20;;;;;;;43.45;20.42;;;;;;;-1.44;62.11;96374.22;4910854;29;20052;-81
2022/03/04 07:06:47;;;;;;;55.35;21.63;;;;;;;-1.45;62.55;96378.75;4913830;29;20048;-81
2022/03/04 07:09:13;;;;;;;46.92;20.90;;;;;;;-1.40;62.57;96378.03;4910675;29;20048;-80
2022/03/04 07:11:40;;;;;;;48.70;20.50;;;;;;;-1.39;62.90;96383.13;4911357;29;20047;-80
2022/03/04 07:14:09;;;;;;;39.65;20.33;;;;;;;-1.24;61.74;96381.75;4911180;29;20051;-80
2022/03/04 07:16:35;;;;;;;40.38;18.90;;;;;;;-1.15;62.24;96380.28;4925351;29;20058;-81
2022/03/04 07:19:02;;;;;;;36.85;18.33;;;;;;;-0.99;61.49;96382.16;4915129;29;20436;-80
2022/03/04 07:21:28;;;;;;;43.13;18.77;;;;;;;-0.81;61.04;96379.22;4910807;29;20082;-81
2022/03/04 07:23:55;;;;;;;37.30;18.65;;;;;;;-0.65;59.57;96382.13;4911567;29;20060;-80
2022/03/04 07:26:22;;;;;;;39.60;15.70;;;;;;;-0.50;58.08;96385.00;4910652;29;20056;-81
2022/03/04 07:28:48;;;;;;;37.72;16.20;;;;;;;-0.32;57.37;96392.72;4914843;29;20044;-82
2022/03/04 07:31:16;;;;;;;32.92;15.20;;;;;;;-0.15;55.46;96392.69;4933226;29;20055;-81
2022/03/04 07:33:46;;;;;;;29.45;14.50;;;;;;;0.07;54.99;96398.03;4944838;29;20133;-83
2022/03/04 07:36:12;;;;;;;38.28;15.98;;;;;;;0.31;54.18;96395.06;4949270;29;20043;-82
2022/03/04 07:38:39;;;;;;;32.75;15.73;;;;;;;0.66;51.96;96394.63;4933096;29;20035;-83
2022/03/04 07:41:06;;;;;;;31.20;15.45;;;;;;;1.09;52.74;96393.66;4931315;28;20071;-80
2022/03/04 07:43:32;;;;;;;30.20;14.55;;;;;;;1.61;50.20;96392.91;4921419;29;20063;-85
2022/03/04 07:45:59;;;;;;;33.50;16.13;;;;;;;2.07;48.01;96398.53;4922778;29;20092;-82
2022/03/04 07:48:29;;;;;;;32.65;15.23;;;;;;;2.30;46.42;96399.97;4943181;29;20052;-82
2022/03/04 07:50:56;;;;;;;28.27;15.65;;;;;;;2.42;47.11;96397.03;4929041;29;20056;-82
2022/03/04 07:53:25;;;;;;;29.42;14.45;;;;;;;2.41;46.42;96400.81;4942224;29;20211;-80
2022/03/04 07:55:52;;;;;;;30.42;15.07;;;;;;;2.49;46.72;96408.34;4899870;29;20578;-83
2022/03/04 07:58:20;;;;;;;29.30;15.43;;;;;;;2.67;45.78;96409.75;4919592;29;20795;-81
2022/03/04 08:00:47;;;;;;;26.63;14.38;;;;;;;2.96;44.54;96404.66;4934172;29;20140;-80
2022/03/04 08:03:16;;;;;;;29.70;14.98;;;;;;;3.21;42.92;96415.41;4945629;29;20076;-81
2022/03/04 08:05:44;;;;;;;28.42;14.52;;;;;;;3.57;42.97;96412.72;4927851;29;20048;-82
2022/03/04 08:08:11;;;;;;;29.23;14.48;;;;;;;3.93;41.94;96410.75;4917134;29;20054;-81
2022/03/04 08:10:38;;;;;;;25.92;14.07;;;;;;;4.34;41.05;96414.09;4941388;29;20127;-83
2022/03/04 08:13:05;;;;;;;26.92;14.35;;;;;;;4.72;41.54;96409.03;4932429;29;20044;-82
2022/03/04 08:15:33;;;;;;;29.65;14.93;;;;;;;5.10;41.55;96418.22;4951748;29;20067;-83
2022/03/04 08:18:00;;;;;;;31.13;14.40;;;;;;;5.63;39.63;96417.53;4952730;29;20048;-81
2022/03/04 08:20:27;;;;;;;28.92;14.77;;;;;;;6.27;39.31;96411.75;4907319;29;20131;-80
2022/03/04 08:22:55;;;;;;;26.77;14.70;;;;;;;7.02;36.77;96424.53;4930703;29;20047;-79
2022/03/04 08:25:22;;;;;;;24.98;14.05;;;;;;;7.62;34.46;96425.75;4929845;29;20059;-79
2022/03/04 08:27:48;;;;;;;25.98;14.65;;;;;;;8.27;34.06;96428.38;4931137;29;20039;-79
2022/03/04 08:30:15;;;;;;;29.48;15.30;;;;;;;8.54;35.38;96422.19;4934946;29;20048;-79
2022/03/04 08:32:42;;;;;;;28.17;15.07;;;;;;;8.99;34.68;96425.03;4934290;29;20051;-80
2022/03/04 08:35:09;;;;;;;28.35;16.27;;;;;;;9.39;34.24;96434.94;4940356;29;20407;-80
2022/03/04 08:37:36;;;;;;;26.63;15.50;;;;;;;9.98;33.27;96423.19;4936572;29;20044;-80
2022/03/04 08:40:08;;;;;;;29.38;15.55;;;;;;;10.14;30.98;96427.91;4932315;29;20735;-78
2022/03/04 08:42:35;;;;;;;27.75;16.15;;;;;;;10.33;31.96;96429.59;4933455;29;20063;-78
2022/03/04 08:45:01;;;;;;;30.58;15.82;;;;;;;10.41;31.45;96426.13;4932337;29;20851;-78
2022/03/04 08:47:28;;;;;;;26.67;15.73;;;;;;;10.23;31.57;96425.19;4932203;29;20044;-79
2022/03/04 08:49:54;;;;;;;30.00;16.08;;;;;;;10.36;31.38;96428.97;4932061;29;20062;-78
2022/03/04 08:52:21;;;;;;;29.48;16.50;;;;;;;10.61;31.50;96430.19;4932128;29;20139;-78
2022/03/04 08:54:47;;;;;;;31.38;16.95;;;;;;;10.38;31.02;96430.25;4931966;29;20063;-78
2022/03/04 08:57:15;;;;;;;28.52;16.05;;;;;;;10.35;30.99;96435.56;4932348;29;20056;-78
2022/03/04 08:59:42;;;;;;;35.55;17.05;;;;;;;10.24;32.38;96431.50;4932151;29;20058;-78
2022/03/04 09:02:09;;;;;;;26.00;15.93;;;;;;;9.80;32.07;96427.72;4936500;29;20047;-77
2022/03/04 09:04:36;;;;;;;28.23;16.17;;;;;;;9.80;32.66;96427.72;4932795;29;20082;-79
2022/03/04 09:07:06;;;;;;;28.67;16.88;;;;;;;9.71;31.53;96426.84;4933157;29;20055;-77
2022/03/04 09:09:33;;;;;;;28.75;15.80;;;;;;;9.57;31.15;96430.44;4934050;29;20048;-80
2022/03/04 09:12:00;;;;;;;29.73;16.27;;;;;;;9.51;32.68;96426.25;4934897;29;20050;-79
2022/03/04 09:14:28;;;;;;;30.80;16.48;;;;;;;9.56;32.30;96434.28;4926616;29;20054;-81
2022/03/04 09:16:54;;;;;;;29.55;17.05;;;;;;;9.47;31.01;96432.63;4913700;29;20056;-79
2022/03/04 09:19:21;;;;;;;29.65;16.08;;;;;;;9.27;31.54;96436.63;4925111;29;20115;-81
2022/03/04 09:21:48;;;;;;;28.52;15.88;;;;;;;9.02;31.04;96436.06;4952332;29;20051;-78
2022/03/04 09:24:15;;;;;;;27.48;15.50;;;;;;;8.80;32.28;96431.41;4952474;29;20047;-78
2022/03/04 09:26:41;;;;;;;26.63;15.80;;;;;;;8.94;32.66;96433.28;4951399;29;20066;-79
2022/03/04 09:29:08;;;;;;;31.10;16.13;;;;;;;9.06;32.42;96433.56;4950264;29;20473;-79
2022/03/04 09:31:36;;;;;;;31.88;16.45;;;;;;;9.13;31.98;96429.31;4950284;28;20417;-77
2022/03/04 09:34:03;;;;;;;29.88;16.00;;;;;;;9.22;31.77;96434.81;4952968;29;20059;-79
2022/03/04 09:36:30;;;;;;;29.70;16.13;;;;;;;9.25;32.22;96436.13;4953773;29;20055;-79
2022/03/04 09:38:56;;;;;;;27.30;16.27;;;;;;;9.25;31.55;96427.97;4941681;28;20051;-79
2022/03/04 09:41:25;;;;;;;27.63;15.93;;;;;;;9.29;31.21;96427.06;4952200;29;20058;-78
2022/03/04 09:43:54;;;;;;;31.63;16.55;;;;;;;9.28;31.15;96424.63;4946743;29;20063;-78
2022/03/04 09:46:21;;;;;;;31.58;17.17;;;;;;;9.34;33.21;96434.25;4937598;29;20055;-81
2022/03/04 09:48:50;;;;;;;28.25;16.23;;;;;;;9.49;31.30;96431.19;4931973;29;20071;-78
2022/03/04 09:51:17;;;;;;;28.27;16.30;;;;;;;9.34;32.51;96426.09;4931158;29;20052;-78
2022/03/04 09:53:45;;;;;;;30.35;16.60;;;;;;;9.43;30.44;96418.81;4931413;29;20260;-80
2022/03/04 09:56:12;;;;;;;30.25;16.63;;;;;;;9.41;31.03;96421.06;4931089;29;20142;-81
2022/03/04 09:58:39;;;;;;;27.05;16.15;;;;;;;9.38;30.35;96427.09;4931047;29;20055;-79
2022/03/04 10:01:09;;;;;;;32.28;16.35;;;;;;;9.35;30.66;96414.94;4931079;29;20637;-78
2022/03/04 10:03:44;;;;;;;29.70;16.02;;;;;;;9.74;30.74;96412.63;4931289;29;20086;-76
2022/03/04 10:06:13;;;;;;;28.13;16.92;;;;;;;9.93;29.59;96411.31;4930379;29;20043;-79
2022/03/04 10:08:41;;;;;;;29.95;17.02;;;;;;;10.03;29.20;96415.69;4932825;29;20047;-79
2022/03/04 10:11:09;;;;;;;29.50;16.17;;;;;;;10.27;30.03;96422.69;4931309;29;20063;-79
2022/03/04 10:13:44;;;;;;;28.65;16.05;;;;;;;10.24;28.88;96415.19;4932436;29;20051;-79
2022/03/04 10:16:11;;;;;;;32.28;16.70;;;;;;;10.29;29.59;96412.31;4914139;29;20491;-79
2022/03/04 10:18:38;;;;;;;25.33;15.60;;;;;;;10.29;29.30;96401.44;4913630;29;20709;-79
2022/03/04 10:21:04;;;;;;;27.48;16.00;;;;;;;10.31;28.66;96407.34;4913187;29;20059;-79
2022/03/04 10:23:32;;;;;;;30.85;17.48;;;;;;;10.20;29.61;96404.88;4913040;29;20044;-79
2022/03/04 10:26:02;;;;;;;30.13;15.77;;;;;;;10.20;29.76;96406.78;4912814;29;20052;-79
2022/03/04 10:28:32;;;;;;;29.13;17.25;;;;;;;9.87;28.90;96409.84;4911188;29;20456;-79
2022/03/04 10:30:59;;;;;;;29.58;16.63;;;;;;;9.76;29.44;96415.84;4912666;29;20172;-79
2022/03/04 10:33:29;;;;;;;29.50;16.58;;;;;;;9.66;28.93;96412.28;4927982;29;20055;-78
2022/03/04 10:36:10;;;;;;;29.63;17.70;;;;;;;9.51;30.35;96414.59;4930701;29;20135;-78
2022/03/04 10:38:41;;;;;;;27.15;16.35;;;;;;;9.62;30.33;96410.50;4930403;29;20039;-78
2022/03/04 10:41:25;;;;;;;29.95;17.35;;;;;;;9.66;30.90;96406.84;4929085;29;20052;-77
2022/03/04 10:43:52;;;;;;;28.88;15.98;;;;;;;9.64;29.73;96409.06;4930550;29;20101;-77
2022/03/04 10:46:20;;;;;;;30.30;16.48;;;;;;;9.49;30.47;96412.16;4930261;29;20051;-79
2022/03/04 10:48:54;;;;;;;32.00;16.73;;;;;;;9.39;30.15;96406.97;4933900;28;20122;-78
2022/03/04 10:51:34;;;;;;;34.90;15.70;;;;;;;9.29;29.83;96409.91;4931091;29;20052;-79
2022/03/04 10:54:14;;;;;;;31.98;17.08;;;;;;;9.06;30.09;96404.47;4932779;29;20056;-79
2022/03/04 10:56:52;;;;;;;32.55;16.90;;;;;;;8.92;31.00;96406.41;4932339;29;20805;-78
2022/03/04 10:59:19;;;;;;;29.10;16.65;;;;;;;8.91;30.50;96404.81;4929309;29;20060;-76
2022/03/04 11:01:47;;;;;;;30.75;16.48;;;;;;;8.90;30.68;96400.50;4930158;29;20056;-77
2022/03/04 11:04:14;;;;;;;30.10;17.23;;;;;;;8.89;30.47;96404.34;4933921;29;20052;-79
2022/03/04 11:06:42;;;;;;;30.25;15.75;;;;;;;8.88;30.33;96403.53;4933711;29;20134;-78
2022/03/04 11:09:09;;;;;;;28.73;15.63;;;;;;;8.82;30.91;96395.78;4929681;29;20491;-78
2022/03/04 11:11:37;;;;;;;31.55;16.48;;;;;;;8.82;29.49;96393.06;4930637;29;20054;-79
2022/03/04 11:14:04;;;;;;;31.02;16.48;;;;;;;8.80;29.68;96395.28;4929061;29;20056;-78
2022/03/04 11:16:31;;;;;;;31.48;16.17;;;;;;;8.92;30.45;96395.56;4929461;29;20064;-78
2022/03/04 11:18:58;;;;;;;25.70;15.15;;;;;;;8.92;29.57;96392.84;4929908;29;20126;-78
2022/03/04 11:21:24;;;;;;;27.55;16.75;;;;;;;8.88;30.49;96394.59;4928657;29;20047;-78